Time;durP1;ratioP1;P1;durP2;ratioP2;P2;SDS_P1;SDS_P2;PMS_P1;PMS_P2;Temp;Humidity;BMP_temperature;BMP_pressure;BME280_temperature;BME280_humidity;BME280_pressure;Samples;Min_cycle;Max_cycle;Signal;HPM_P1;HPM_P2
2021/09/09 00:01:12;;;;;;;5.95;5.45;;;23.60;64.50;;;;;;4192124;28;20114;-59
2021/09/09 00:03:35;;;;;;;5.90;5.38;;;23.60;64.60;;;;;;4192116;28;20044;-60
2021/09/09 00:05:59;;;;;;;5.97;5.28;;;23.60;64.40;;;;;;4191774;28;20051;-60
2021/09/09 00:08:21;;;;;;;5.47;4.97;;;23.60;64.60;;;;;;4190629;28;20045;-60
2021/09/09 00:10:44;;;;;;;5.50;5.05;;;23.60;64.60;;;;;;4181757;28;20052;-60
2021/09/09 00:13:06;;;;;;;6.28;5.78;;;23.60;64.40;;;;;;4175342;28;20045;-60
2021/09/09 00:15:30;;;;;;;5.20;4.80;;;23.60;64.60;;;;;;4175183;28;20411;-60
2021/09/09 00:17:52;;;;;;;5.90;4.85;;;23.60;65.30;;;;;;4175656;28;20060;-60
2021/09/09 00:20:15;;;;;;;5.68;5.18;;;23.60;65.00;;;;;;4181708;28;20048;-61
2021/09/09 00:22:38;;;;;;;5.80;5.20;;;23.50;64.70;;;;;;4191360;28;20055;-60
2021/09/09 00:25:01;;;;;;;5.57;5.07;;;23.50;64.60;;;;;;4190759;28;20475;-61
2021/09/09 00:27:26;;;;;;;5.45;5.05;;;23.50;64.30;;;;;;4190996;28;20052;-60
2021/09/09 00:29:49;;;;;;;6.38;5.88;;;23.50;64.90;;;;;;4190440;28;20769;-60
2021/09/09 00:32:11;;;;;;;5.82;5.25;;;23.50;64.60;;;;;;4191730;28;20048;-61
2021/09/09 00:34:33;;;;;;;5.82;5.10;;;23.50;64.70;;;;;;4191379;28;20456;-60
2021/09/09 00:36:55;;;;;;;7.43;6.07;;;23.50;64.60;;;;;;4191511;28;20113;-60
2021/09/09 00:39:17;;;;;;;5.82;5.32;;;23.50;64.20;;;;;;4186973;28;20052;-60
2021/09/09 00:41:39;;;;;;;6.25;5.65;;;23.40;64.40;;;;;;4208232;28;20404;-60
2021/09/09 00:44:04;;;;;;;6.50;5.65;;;23.50;64.10;;;;;;4191173;28;20080;-60
2021/09/09 00:46:26;;;;;;;7.07;5.80;;;23.40;63.90;;;;;;4206837;28;20094;-60
2021/09/09 00:48:48;;;;;;;5.93;5.47;;;23.50;64.90;;;;;;4176064;28;20040;-60
2021/09/09 00:51:10;;;;;;;6.20;5.63;;;23.40;64.30;;;;;;4174565;28;20059;-60
2021/09/09 00:53:32;;;;;;;6.15;5.65;;;23.40;63.30;;;;;;4191457;28;20102;-59
2021/09/09 00:55:54;;;;;;;6.20;5.68;;;23.40;63.80;;;;;;4190429;28;20052;-59
2021/09/09 00:58:17;;;;;;;6.47;6.07;;;23.40;63.10;;;;;;4191294;28;20044;-61
2021/09/09 01:00:41;;;;;;;6.72;6.18;;;23.40;63.10;;;;;;4190910;28;20044;-61
2021/09/09 01:03:03;;;;;;;6.15;5.57;;;23.30;63.30;;;;;;4191138;28;20414;-61
2021/09/09 01:05:25;;;;;;;6.65;5.90;;;23.40;64.10;;;;;;4190694;28;20072;-61
2021/09/09 01:07:48;;;;;;;6.63;6.05;;;23.30;63.90;;;;;;4190803;28;20513;-61
2021/09/09 01:10:11;;;;;;;6.22;5.72;;;23.30;63.60;;;;;;4190729;28;20032;-61
2021/09/09 01:12:33;;;;;;;6.45;5.85;;;23.30;63.30;;;;;;4190798;28;20048;-60
2021/09/09 01:14:56;;;;;;;5.97;5.47;;;23.30;63.80;;;;;;4191096;28;20576;-61
2021/09/09 01:17:19;;;;;;;6.47;5.97;;;23.30;63.50;;;;;;4177721;28;20068;-61
2021/09/09 01:19:41;;;;;;;7.47;6.22;;;23.30;63.40;;;;;;4182904;28;20055;-61
2021/09/09 01:22:04;;;;;;;6.60;6.10;;;23.30;64.00;;;;;;4191076;28;20052;-61
2021/09/09 01:24:28;;;;;;;6.30;5.80;;;23.20;64.40;;;;;;4191149;28;20045;-61
2021/09/09 01:26:53;;;;;;;7.13;6.10;;;23.20;64.40;;;;;;4190431;28;20503;-62
2021/09/09 01:29:15;;;;;;;7.13;6.43;;;23.20;64.10;;;;;;4188346;28;20143;-61
2021/09/09 01:31:37;;;;;;;7.05;6.30;;;23.30;64.40;;;;;;4190762;28;20234;-61
2021/09/09 01:33:59;;;;;;;6.68;6.15;;;23.20;66.10;;;;;;4174620;28;20510;-61
2021/09/09 01:36:21;;;;;;;6.38;5.88;;;23.20;64.80;;;;;;4181955;28;20606;-61
2021/09/09 01:38:44;;;;;;;7.43;6.28;;;23.20;64.40;;;;;;4190998;28;20075;-61
2021/09/09 01:41:07;;;;;;;6.78;6.28;;;23.20;64.20;;;;;;4174566;28;20156;-61
2021/09/09 01:43:29;;;;;;;7.03;6.40;;;23.20;64.40;;;;;;4174036;28;20495;-60
2021/09/09 01:45:52;;;;;;;6.60;6.10;;;23.20;65.30;;;;;;4180402;28;20053;-59
2021/09/09 01:48:14;;;;;;;8.60;6.95;;;23.20;65.00;;;;;;4190401;28;20407;-61
2021/09/09 01:50:36;;;;;;;7.53;6.90;;;23.10;64.50;;;;;;4190889;28;20490;-60
2021/09/09 01:52:58;;;;;;;7.20;6.50;;;23.20;64.30;;;;;;4190623;28;20045;-61
2021/09/09 01:55:20;;;;;;;7.05;6.40;;;23.10;64.20;;;;;;4190690;28;20076;-60
2021/09/09 01:57:43;;;;;;;6.90;6.38;;;23.10;64.60;;;;;;4190491;28;20512;-60
2021/09/09 02:00:07;;;;;;;7.05;6.38;;;23.10;63.70;;;;;;4190642;28;20082;-60
2021/09/09 02:02:35;;;;;;;9.13;6.97;;;23.10;64.30;;;;;;4190782;28;20114;-61
2021/09/09 02:04:57;;;;;;;7.55;6.93;;;23.10;65.20;;;;;;4189651;28;20133;-61
2021/09/09 02:07:19;;;;;;;7.25;6.75;;;23.10;65.40;;;;;;4176886;28;20410;-60
2021/09/09 02:09:41;;;;;;;8.75;7.20;;;23.10;64.90;;;;;;4184739;28;20044;-60
2021/09/09 02:12:04;;;;;;;6.90;6.40;;;23.10;64.90;;;;;;4190905;28;20049;-60
2021/09/09 02:14:27;;;;;;;7.25;6.65;;;23.10;65.00;;;;;;4174221;28;20126;-61
2021/09/09 02:16:51;;;;;;;6.63;6.03;;;23.10;65.20;;;;;;4175652;28;20048;-61
2021/09/09 02:19:13;;;;;;;6.72;6.10;;;23.00;66.10;;;;;;4160805;28;20763;-60
2021/09/09 02:21:36;;;;;;;9.57;6.72;;;23.10;66.00;;;;;;4176939;28;20506;-61
2021/09/09 02:23:58;;;;;;;6.93;6.40;;;23.00;66.30;;;;;;4176923;28;20132;-61
2021/09/09 02:26:20;;;;;;;8.05;7.28;;;23.00;66.20;;;;;;4185893;28;20068;-59
2021/09/09 02:28:42;;;;;;;7.53;6.32;;;23.00;65.40;;;;;;4193301;28;20063;-61
2021/09/09 02:31:06;;;;;;;8.00;7.20;;;23.00;65.00;;;;;;4177093;28;20057;-61
2021/09/09 02:33:28;;;;;;;7.30;6.70;;;23.00;65.20;;;;;;4193285;28;20045;-63
2021/09/09 02:35:50;;;;;;;6.53;6.03;;;23.00;65.40;;;;;;4166872;28;20042;-60
2021/09/09 02:38:13;;;;;;;7.80;7.03;;;23.00;65.70;;;;;;4172526;28;20102;-61
2021/09/09 02:40:35;;;;;;;7.28;6.78;;;23.00;65.70;;;;;;4176269;28;20041;-60
2021/09/09 02:42:57;;;;;;;8.02;7.22;;;23.00;66.00;;;;;;4184854;28;20515;-61
2021/09/09 02:45:19;;;;;;;9.18;7.82;;;23.00;65.50;;;;;;4177082;28;20064;-61
2021/09/09 02:47:42;;;;;;;8.05;7.28;;;23.00;66.30;;;;;;4181479;28;20072;-61
2021/09/09 02:50:06;;;;;;;8.27;7.47;;;23.00;65.40;;;;;;4192901;28;20695;-59
2021/09/09 02:52:29;;;;;;;8.15;7.25;;;23.00;65.40;;;;;;4192257;28;20057;-61
2021/09/09 02:54:52;;;;;;;7.70;7.00;;;22.90;65.80;;;;;;4192913;28;20060;-61
2021/09/09 02:57:14;;;;;;;8.48;6.88;;;23.00;66.10;;;;;;4192794;28;20051;-60
2021/09/09 02:59:36;;;;;;;7.43;6.65;;;22.90;66.00;;;;;;4193103;28;20490;-61
2021/09/09 03:01:58;;;;;;;8.05;7.30;;;22.90;65.30;;;;;;4192727;28;20037;-61
2021/09/09 03:04:21;;;;;;;6.72;6.13;;;22.90;65.80;;;;;;4177758;28;20140;-60
2021/09/09 03:06:43;;;;;;;7.63;6.82;;;22.90;65.70;;;;;;4180354;28;20049;-60
2021/09/09 03:09:05;;;;;;;8.38;7.60;;;22.90;65.70;;;;;;4180084;28;20484;-60
2021/09/09 03:11:27;;;;;;;7.65;6.93;;;22.90;65.70;;;;;;4176504;28;20048;-59
2021/09/09 03:13:49;;;;;;;8.10;7.30;;;22.90;65.80;;;;;;4186850;28;20052;-60
2021/09/09 03:16:11;;;;;;;8.00;7.25;;;22.90;66.20;;;;;;4192757;28;20755;-60
2021/09/09 03:18:33;;;;;;;7.75;6.93;;;22.90;66.10;;;;;;4190838;28;20048;-61
2021/09/09 03:20:56;;;;;;;9.32;7.28;;;22.90;66.50;;;;;;4192362;28;20441;-60
2021/09/09 03:23:19;;;;;;;7.32;6.72;;;22.90;66.70;;;;;;4185826;28;20129;-60
2021/09/09 03:25:41;;;;;;;7.53;6.82;;;22.90;66.90;;;;;;4175374;28;20045;-60
2021/09/09 03:28:03;;;;;;;7.65;6.95;;;22.90;67.10;;;;;;4189967;28;20110;-59
2021/09/09 03:30:25;;;;;;;8.52;7.38;;;22.90;67.20;;;;;;4191844;28;20052;-61
2021/09/09 03:32:47;;;;;;;7.10;6.50;;;22.80;67.20;;;;;;4191584;28;20067;-61
2021/09/09 03:35:10;;;;;;;7.63;7.03;;;22.90;67.30;;;;;;4191879;28;20052;-61
2021/09/09 03:37:34;;;;;;;7.45;6.75;;;22.90;67.30;;;;;;4192138;28;20487;-60
2021/09/09 03:39:56;;;;;;;7.97;7.18;;;22.90;67.20;;;;;;4192199;28;20041;-60
2021/09/09 03:42:18;;;;;;;7.63;6.85;;;22.90;67.10;;;;;;4192382;28;20047;-60
2021/09/09 03:44:40;;;;;;;7.47;6.88;;;22.80;67.10;;;;;;4190274;28;20399;-61
2021/09/09 03:47:02;;;;;;;7.18;6.57;;;22.90;67.20;;;;;;4191602;28;20422;-61
2021/09/09 03:49:24;;;;;;;7.43;6.75;;;22.80;67.10;;;;;;4191886;28;20053;-61
2021/09/09 03:51:46;;;;;;;7.47;6.88;;;22.90;67.10;;;;;;4175722;28;20049;-61
2021/09/09 03:54:10;;;;;;;8.30;7.47;;;22.80;67.20;;;;;;4176973;28;20057;-61
2021/09/09 03:56:31;;;;;;;7.75;7.05;;;22.80;67.00;;;;;;4175476;28;20208;-61
2021/09/09 03:58:54;;;;;;;7.80;7.00;;;22.80;67.10;;;;;;4182157;28;20053;-60
2021/09/09 04:01:16;;;;;;;7.78;7.07;;;22.80;67.20;;;;;;4184858;28;20140;-61
2021/09/09 04:04:03;;;;;;;7.70;6.80;;;22.80;67.30;;;;;;4174761;28;20056;-61
2021/09/09 04:06:44;;;;;;;8.23;7.53;;;22.80;67.40;;;;;;4175699;28;20056;-64
2021/09/09 04:09:33;;;;;;;7.97;7.35;;;22.80;67.50;;;;;;4191770;28;20059;-60
2021/09/09 04:11:58;;;;;;;7.35;6.75;;;22.70;68.10;;;;;;4191924;28;20072;-61
2021/09/09 04:14:20;;;;;;;8.43;7.60;;;22.80;67.40;;;;;;4175054;28;20049;-61
2021/09/09 04:16:42;;;;;;;7.45;6.75;;;22.80;67.20;;;;;;4174972;28;20456;-59
2021/09/09 04:19:04;;;;;;;8.65;7.55;;;22.80;67.10;;;;;;4175485;28;20041;-61
2021/09/09 04:21:26;;;;;;;7.78;7.13;;;22.80;67.00;;;;;;4191782;28;20129;-60
2021/09/09 04:23:52;;;;;;;7.50;6.80;;;22.70;67.10;;;;;;4183186;28;21544;-60
2021/09/09 04:26:15;;;;;;;8.45;7.65;;;22.70;67.00;;;;;;4175155;28;20053;-60
2021/09/09 04:28:36;;;;;;;7.82;7.22;;;22.70;66.90;;;;;;4173579;28;20044;-61
2021/09/09 04:30:59;;;;;;;7.40;6.70;;;22.70;67.10;;;;;;4174812;28;20049;-61
2021/09/09 04:33:21;;;;;;;7.97;7.38;;;22.70;67.10;;;;;;4175441;28;20825;-60
2021/09/09 04:35:43;;;;;;;7.47;6.90;;;22.70;67.00;;;;;;4178084;28;20052;-61
2021/09/09 04:38:08;;;;;;;8.57;7.57;;;22.70;66.90;;;;;;4191199;28;20076;-60
2021/09/09 04:40:30;;;;;;;7.43;6.85;;;22.70;67.00;;;;;;4190319;28;20048;-60
2021/09/09 04:42:54;;;;;;;9.43;7.53;;;22.70;67.00;;;;;;4191104;28;20055;-60
2021/09/09 04:45:16;;;;;;;8.13;7.43;;;22.70;67.00;;;;;;4174655;28;20156;-61
2021/09/09 04:47:38;;;;;;;8.30;7.45;;;22.70;67.00;;;;;;4165841;28;20064;-60
2021/09/09 04:50:00;;;;;;;8.48;7.60;;;22.60;67.20;;;;;;4174429;28;20083;-60
2021/09/09 04:52:22;;;;;;;8.68;7.88;;;22.70;68.10;;;;;;4174809;28;20514;-61
2021/09/09 04:54:44;;;;;;;8.70;8.00;;;22.60;67.10;;;;;;4174679;28;20450;-61
2021/09/09 04:57:07;;;;;;;7.75;7.15;;;22.70;68.00;;;;;;4178170;28;20112;-60
2021/09/09 04:59:30;;;;;;;7.95;7.35;;;22.60;67.10;;;;;;4187102;28;20044;-60
2021/09/09 05:01:53;;;;;;;8.15;7.05;;;22.60;66.90;;;;;;4191094;28;20060;-61
2021/09/09 05:04:15;;;;;;;8.20;7.50;;;22.60;67.00;;;;;;4189933;28;20056;-60
2021/09/09 05:06:37;;;;;;;9.27;7.90;;;22.60;67.00;;;;;;4189921;28;20056;-60
2021/09/09 05:09:00;;;;;;;8.18;7.45;;;22.60;67.00;;;;;;4174447;28;20157;-60
2021/09/09 05:11:22;;;;;;;10.38;7.72;;;22.60;66.80;;;;;;4174330;28;20514;-59
2021/09/09 05:13:45;;;;;;;8.38;7.53;;;22.60;66.90;;;;;;4163197;28;20496;-60
2021/09/09 05:16:08;;;;;;;8.35;7.65;;;22.60;67.10;;;;;;4157658;28;20836;-57
2021/09/09 05:18:30;;;;;;;8.85;8.15;;;22.60;67.20;;;;;;4161931;28;20104;-59
2021/09/09 05:20:53;;;;;;;8.25;7.55;;;22.60;67.20;;;;;;4175251;28;20063;-60
2021/09/09 05:23:16;;;;;;;9.07;8.05;;;22.60;67.90;;;;;;4174974;28;20483;-60
2021/09/09 05:25:38;;;;;;;8.65;7.95;;;22.70;69.30;;;;;;4178393;28;20049;-59
2021/09/09 05:28:00;;;;;;;8.48;7.78;;;22.60;67.70;;;;;;4174058;28;20052;-59
2021/09/09 05:30:22;;;;;;;9.32;8.43;;;22.60;68.00;;;;;;4157118;28;20057;-60
2021/09/09 05:32:45;;;;;;;9.10;8.20;;;22.60;66.90;;;;;;4181165;28;20501;-59
2021/09/09 05:35:13;;;;;;;9.25;8.35;;;22.60;66.90;;;;;;4187758;28;20151;-60
2021/09/09 05:37:35;;;;;;;7.90;7.30;;;22.60;65.60;;;;;;4174326;28;20067;-59
2021/09/09 05:39:57;;;;;;;8.48;7.80;;;22.60;67.30;;;;;;4174410;28;20426;-59
2021/09/09 05:42:20;;;;;;;9.77;8.88;;;22.60;67.70;;;;;;4179911;28;20043;-60
2021/09/09 05:44:42;;;;;;;10.40;9.40;;;22.60;67.70;;;;;;4176666;28;20053;-60
2021/09/09 05:47:05;;;;;;;9.23;8.48;;;22.60;67.80;;;;;;4174103;28;20067;-60
2021/09/09 05:49:28;;;;;;;10.27;9.27;;;22.60;67.70;;;;;;4174017;28;20045;-60
2021/09/09 05:51:50;;;;;;;10.40;9.43;;;22.60;67.90;;;;;;4181456;28;20068;-59
2021/09/09 05:54:13;;;;;;;10.00;9.00;;;22.60;67.80;;;;;;4178269;28;20063;-59
2021/09/09 05:56:35;;;;;;;11.30;9.25;;;22.60;68.20;;;;;;4177517;28;20570;-60
2021/09/09 05:58:57;;;;;;;10.05;9.15;;;22.50;68.10;;;;;;4177611;28;20080;-59
2021/09/09 06:01:20;;;;;;;9.15;8.38;;;22.50;68.10;;;;;;4176569;28;20102;-59
2021/09/09 06:03:44;;;;;;;10.02;9.05;;;22.50;68.00;;;;;;4166493;28;20068;-59
2021/09/09 06:06:07;;;;;;;9.50;8.55;;;22.50;69.20;;;;;;4165765;28;20061;-59
2021/09/09 06:08:31;;;;;;;9.40;8.43;;;22.50;68.40;;;;;;4160901;28;20045;-59
2021/09/09 06:10:55;;;;;;;8.68;7.88;;;22.50;68.60;;;;;;4175765;28;20106;-60
2021/09/09 06:13:17;;;;;;;13.68;8.60;;;22.50;68.70;;;;;;4161679;28;20049;-59
2021/09/09 06:15:39;;;;;;;9.98;8.57;;;22.50;68.70;;;;;;4168443;28;20056;-59
2021/09/09 06:18:01;;;;;;;10.70;8.07;;;22.50;68.90;;;;;;4177842;28;20045;-59
2021/09/09 06:20:26;;;;;;;9.35;8.45;;;22.50;68.70;;;;;;4176753;28;20049;-60
2021/09/09 06:22:49;;;;;;;9.75;8.85;;;22.50;68.90;;;;;;4165802;28;20049;-58
2021/09/09 06:25:12;;;;;;;9.18;8.45;;;22.50;69.00;;;;;;4177021;28;20412;-59
2021/09/09 06:27:34;;;;;;;10.02;8.98;;;22.50;69.00;;;;;;4186502;28;20064;-58
2021/09/09 06:29:56;;;;;;;9.10;8.40;;;22.40;69.20;;;;;;4209854;28;20105;-59
2021/09/09 06:32:18;;;;;;;8.98;8.07;;;22.50;69.10;;;;;;4196035;28;20044;-59
2021/09/09 06:34:40;;;;;;;9.65;8.77;;;22.40;69.30;;;;;;4178084;28;20044;-59
2021/09/09 06:37:02;;;;;;;10.73;9.65;;;22.40;69.50;;;;;;4182703;28;20098;-59
2021/09/09 06:39:26;;;;;;;10.88;9.18;;;22.40;69.50;;;;;;4187316;28;20045;-58
2021/09/09 06:41:48;;;;;;;11.02;9.95;;;22.50;69.90;;;;;;4188596;28;20041;-59
2021/09/09 06:44:10;;;;;;;10.18;9.18;;;22.50;70.00;;;;;;4187392;28;20055;-59
2021/09/09 06:46:33;;;;;;;10.20;9.20;;;22.50;70.10;;;;;;4191497;28;20081;-59
2021/09/09 06:48:55;;;;;;;10.60;9.63;;;22.50;69.60;;;;;;4181577;28;20151;-59
2021/09/09 06:51:21;;;;;;;10.30;9.30;;;22.50;69.60;;;;;;4179884;28;20099;-52
2021/09/09 06:53:43;;;;;;;11.48;10.38;;;22.50;69.90;;;;;;4186264;28;20106;-59
2021/09/09 06:56:06;;;;;;;10.93;9.85;;;22.50;70.10;;;;;;4191152;28;20048;-58
2021/09/09 06:58:28;;;;;;;10.98;10.07;;;22.50;70.10;;;;;;4192868;28;20052;-59
2021/09/09 07:00:51;;;;;;;12.35;9.93;;;22.50;70.20;;;;;;4192774;28;20555;-58
2021/09/09 07:03:13;;;;;;;11.13;10.02;;;22.50;70.30;;;;;;4191753;28;20041;-58
2021/09/09 07:05:35;;;;;;;10.77;9.77;;;22.50;70.30;;;;;;4191780;28;20064;-58
2021/09/09 07:07:57;;;;;;;10.45;9.40;;;22.50;70.30;;;;;;4189911;28;20049;-58
2021/09/09 07:10:20;;;;;;;10.88;9.77;;;22.50;71.10;;;;;;4166251;28;20050;-58
2021/09/09 07:12:43;;;;;;;11.18;9.57;;;22.50;70.60;;;;;;4159787;28;20496;-58
2021/09/09 07:15:06;;;;;;;11.05;10.10;;;22.50;71.00;;;;;;4164437;28;20764;-59
2021/09/09 07:17:28;;;;;;;11.73;10.50;;;22.50;71.00;;;;;;4176406;28;20510;-58
2021/09/09 07:19:51;;;;;;;12.00;10.70;;;22.50;71.20;;;;;;4175987;28;20048;-58
2021/09/09 07:22:13;;;;;;;12.95;10.52;;;22.50;71.40;;;;;;4192581;28;20099;-57
2021/09/09 07:24:39;;;;;;;11.95;10.85;;;22.60;71.40;;;;;;4192759;28;20079;-58
2021/09/09 07:27:01;;;;;;;12.02;10.77;;;22.60;71.50;;;;;;4192172;28;20052;-57
2021/09/09 07:29:24;;;;;;;12.52;11.30;;;22.60;71.50;;;;;;4192347;28;20044;-59
2021/09/09 07:31:47;;;;;;;11.23;10.10;;;22.70;71.50;;;;;;4192547;28;20048;-56
2021/09/09 07:34:12;;;;;;;11.05;9.95;;;22.70;71.50;;;;;;4192434;28;20041;-61
2021/09/09 07:36:34;;;;;;;12.30;10.90;;;22.70;71.20;;;;;;4175942;28;20048;-57
2021/09/09 07:38:56;;;;;;;11.80;10.70;;;22.80;71.20;;;;;;4175951;28;20048;-58
2021/09/09 07:41:19;;;;;;;12.07;10.93;;;22.80;71.20;;;;;;4175820;28;20139;-58
2021/09/09 07:43:41;;;;;;;13.05;11.40;;;22.90;71.40;;;;;;4175890;28;20495;-59
2021/09/09 07:46:04;;;;;;;12.10;10.93;;;22.90;71.40;;;;;;4175608;28;20126;-58
2021/09/09 07:48:26;;;;;;;11.93;10.82;;;22.90;71.40;;;;;;4175277;28;20048;-59
2021/09/09 07:50:48;;;;;;;11.80;10.77;;;23.00;71.50;;;;;;4175072;28;20188;-59
2021/09/09 07:53:10;;;;;;;12.68;11.57;;;23.00;71.50;;;;;;4175767;28;20076;-58
2021/09/09 07:55:32;;;;;;;13.38;12.05;;;23.00;71.50;;;;;;4184541;28;20743;-58
2021/09/09 07:57:55;;;;;;;13.95;12.52;;;23.10;71.70;;;;;;4190076;28;20060;-58
2021/09/09 08:00:17;;;;;;;12.95;11.75;;;23.10;71.70;;;;;;4190612;28;20052;-57
2021/09/09 08:02:41;;;;;;;12.88;11.68;;;23.10;71.90;;;;;;4190621;28;20052;-58
2021/09/09 08:05:03;;;;;;;11.75;10.55;;;23.10;71.90;;;;;;4175556;28;20064;-58
2021/09/09 08:07:25;;;;;;;16.10;12.13;;;23.20;71.80;;;;;;4158883;28;20046;-58
2021/09/09 08:09:47;;;;;;;13.20;11.55;;;23.20;71.80;;;;;;4174878;28;20140;-58
2021/09/09 08:12:10;;;;;;;13.50;12.18;;;23.20;71.70;;;;;;4175569;28;20048;-59
2021/09/09 08:14:32;;;;;;;14.20;11.23;;;23.30;71.60;;;;;;4158809;28;20042;-58
2021/09/09 08:16:54;;;;;;;13.15;11.98;;;23.30;71.50;;;;;;4175154;28;20065;-59
2021/09/09 08:19:18;;;;;;;14.13;12.63;;;23.30;71.40;;;;;;4174878;28;20483;-59
2021/09/09 08:21:40;;;;;;;13.18;11.88;;;23.30;71.40;;;;;;4191042;28;20104;-58
2021/09/09 08:24:02;;;;;;;14.93;11.70;;;23.40;71.50;;;;;;4187766;28;20041;-59
2021/09/09 08:26:25;;;;;;;12.18;10.95;;;23.40;71.40;;;;;;4167121;28;20056;-58
2021/09/09 08:28:48;;;;;;;12.95;11.75;;;23.50;71.30;;;;;;4165233;28;20071;-57
2021/09/09 08:31:10;;;;;;;13.13;11.68;;;23.50;71.50;;;;;;4174364;28;20138;-58
2021/09/09 08:33:32;;;;;;;13.45;12.25;;;23.50;71.60;;;;;;4175003;28;20048;-58
2021/09/09 08:35:56;;;;;;;12.60;11.35;;;23.50;71.50;;;;;;4175062;28;20056;-59
2021/09/09 08:38:18;;;;;;;12.88;11.65;;;23.60;71.40;;;;;;4167624;28;20050;-59
2021/09/09 08:40:41;;;;;;;13.75;11.95;;;23.60;71.20;;;;;;4190518;28;20052;-60
2021/09/09 08:43:03;;;;;;;12.27;11.10;;;23.60;71.00;;;;;;4190544;28;20044;-59
2021/09/09 08:45:25;;;;;;;13.05;11.70;;;23.60;70.90;;;;;;4190827;28;20487;-59
2021/09/09 08:47:48;;;;;;;12.18;10.90;;;23.70;71.00;;;;;;4189997;28;20056;-59
2021/09/09 08:50:11;;;;;;;12.65;11.48;;;23.70;70.80;;;;;;4175302;28;20056;-61
2021/09/09 08:52:35;;;;;;;11.75;10.73;;;23.70;70.80;;;;;;4176109;28;20045;-59
2021/09/09 08:54:56;;;;;;;13.05;11.75;;;23.80;71.10;;;;;;4174340;28;20056;-59
2021/09/09 08:57:21;;;;;;;11.82;10.75;;;23.80;70.80;;;;;;4191219;28;20119;-58
2021/09/09 08:59:42;;;;;;;12.07;10.90;;;23.80;70.80;;;;;;4190941;28;20036;-59
2021/09/09 09:02:11;;;;;;;12.07;10.90;;;23.80;71.10;;;;;;4191201;28;20048;-59
2021/09/09 09:04:35;;;;;;;12.10;10.90;;;23.80;71.00;;;;;;4191249;28;20045;-60
2021/09/09 09:06:58;;;;;;;12.43;11.07;;;23.90;70.80;;;;;;4191017;28;20491;-60
2021/09/09 09:09:24;;;;;;;11.15;10.15;;;23.90;70.50;;;;;;4190940;28;20076;-59
2021/09/09 09:11:49;;;;;;;12.13;10.95;;;23.90;70.30;;;;;;4190531;28;20068;-59
2021/09/09 09:14:13;;;;;;;12.15;10.95;;;23.90;70.50;;;;;;4174146;28;20776;-60
2021/09/09 09:16:36;;;;;;;11.00;10.00;;;24.00;70.50;;;;;;4191151;28;20044;-60
2021/09/09 09:18:59;;;;;;;12.05;10.85;;;24.00;70.30;;;;;;4191146;28;20045;-59
2021/09/09 09:21:22;;;;;;;11.70;10.52;;;24.00;70.30;;;;;;4191147;28;20505;-59
2021/09/09 09:23:48;;;;;;;11.32;10.30;;;24.00;69.90;;;;;;4190774;28;20127;-59
2021/09/09 09:26:20;;;;;;;10.95;9.85;;;24.10;69.90;;;;;;4192173;28;20044;-59
2021/09/09 09:28:44;;;;;;;11.63;10.52;;;24.10;69.60;;;;;;4194165;28;20052;-59
2021/09/09 09:31:09;;;;;;;12.05;10.95;;;24.10;69.30;;;;;;4194378;28;20041;-59
2021/09/09 09:33:32;;;;;;;10.88;9.80;;;24.20;69.30;;;;;;4194324;28;20686;-59
2021/09/09 09:36:13;;;;;;;12.00;10.73;;;24.20;70.20;;;;;;4194626;28;20075;-59
2021/09/09 09:38:35;;;;;;;11.10;9.90;;;24.20;69.70;;;;;;4193962;28;20044;-59
2021/09/09 09:40:57;;;;;;;10.50;9.60;;;24.30;69.20;;;;;;4194127;28;20052;-59
2021/09/09 09:43:21;;;;;;;11.90;10.57;;;24.30;68.90;;;;;;4193979;28;20052;-59
2021/09/09 09:45:49;;;;;;;11.13;10.13;;;24.30;68.90;;;;;;4194175;28;20053;-59
2021/09/09 09:48:25;;;;;;;10.65;9.65;;;24.30;68.60;;;;;;4193039;28;20072;-60
2021/09/09 09:50:47;;;;;;;10.30;9.32;;;24.30;68.30;;;;;;4192815;28;20502;-58
2021/09/09 09:53:17;;;;;;;9.75;8.85;;;24.40;68.30;;;;;;4194090;28;20408;-59
2021/09/09 09:55:41;;;;;;;12.50;10.00;;;24.40;68.20;;;;;;4193818;28;20806;-59
2021/09/09 09:58:04;;;;;;;11.38;9.00;;;24.40;68.10;;;;;;4193953;28;20275;-59
2021/09/09 10:00:27;;;;;;;10.70;9.65;;;24.40;68.10;;;;;;4193739;28;20048;-59
2021/09/09 10:02:55;;;;;;;9.48;8.68;;;24.50;67.70;;;;;;4193853;28;20429;-59
2021/09/09 10:05:18;;;;;;;8.77;7.97;;;24.50;67.40;;;;;;4193669;28;20048;-59
2021/09/09 10:07:41;;;;;;;9.27;8.52;;;24.50;67.10;;;;;;4193371;28;20041;-59
2021/09/09 10:10:04;;;;;;;10.35;9.27;;;24.60;67.30;;;;;;4176918;28;20063;-59
2021/09/09 10:12:26;;;;;;;12.82;8.95;;;24.60;67.60;;;;;;4192154;28;20517;-59
2021/09/09 10:14:51;;;;;;;8.85;7.75;;;24.70;66.50;;;;;;4177138;28;20107;-59
2021/09/09 10:17:17;;;;;;;9.38;8.60;;;24.70;67.10;;;;;;4176540;28;20131;-59
2021/09/09 10:19:39;;;;;;;9.68;8.52;;;24.70;66.40;;;;;;4177189;28;20535;-59
2021/09/09 10:22:10;;;;;;;9.75;8.80;;;24.80;65.20;;;;;;4176732;28;20110;-60
2021/09/09 10:24:34;;;;;;;8.80;8.10;;;24.80;65.10;;;;;;4177048;28;20098;-59
2021/09/09 10:27:21;;;;;;;9.38;7.53;;;24.80;65.40;;;;;;4176401;28;20057;-60
2021/09/09 10:30:00;;;;;;;8.13;7.40;;;24.90;65.30;;;;;;4193161;28;20052;-60
2021/09/09 10:32:58;;;;;;;10.70;7.32;;;24.90;65.70;;;;;;4193034;28;20135;-59
2021/09/09 10:35:34;;;;;;;8.20;7.20;;;25.00;65.00;;;;;;4176655;28;20041;-59
2021/09/09 10:37:58;;;;;;;10.95;6.90;;;25.00;64.60;;;;;;4192934;28;20068;-59
2021/09/09 10:40:32;;;;;;;7.78;7.05;;;25.00;64.70;;;;;;4193071;28;20048;-59
2021/09/09 10:42:55;;;;;;;7.78;6.88;;;25.10;65.00;;;;;;4174708;28;20044;-58
2021/09/09 10:45:39;;;;;;;6.63;6.13;;;25.00;64.90;;;;;;4193110;28;20505;-59
2021/09/09 10:48:04;;;;;;;7.75;6.95;;;25.10;63.90;;;;;;4192927;28;20778;-59
2021/09/09 10:50:26;;;;;;;6.85;6.15;;;25.20;64.20;;;;;;4175435;28;20041;-59
2021/09/09 10:52:58;;;;;;;6.20;5.75;;;25.20;64.00;;;;;;4160356;28;20045;-60
2021/09/09 10:55:26;;;;;;;6.80;6.10;;;25.20;63.50;;;;;;4159890;28;20061;-59
2021/09/09 10:57:48;;;;;;;6.32;5.75;;;25.20;63.00;;;;;;4159606;28;20396;-60
2021/09/09 11:00:16;;;;;;;7.78;7.00;;;25.30;63.00;;;;;;4176442;28;20037;-59
2021/09/09 11:02:45;;;;;;;8.45;7.53;;;25.30;63.60;;;;;;4176088;28;20125;-59
2021/09/09 11:05:10;;;;;;;7.25;6.55;;;25.30;63.90;;;;;;4176189;28;20487;-59
2021/09/09 11:07:38;;;;;;;8.10;6.72;;;25.40;63.20;;;;;;4180482;28;20135;-59
2021/09/09 11:10:02;;;;;;;7.03;6.20;;;25.40;63.60;;;;;;4184903;28;20060;-60
2021/09/09 11:12:24;;;;;;;6.53;5.95;;;25.40;63.50;;;;;;4181132;28;20066;-59
2021/09/09 11:14:47;;;;;;;6.60;6.03;;;25.50;63.40;;;;;;4192829;28;20090;-59
2021/09/09 11:17:16;;;;;;;6.85;6.15;;;25.50;63.40;;;;;;4192815;28;20055;-58
2021/09/09 11:19:38;;;;;;;6.47;5.97;;;25.50;62.30;;;;;;4175794;28;20053;-59
2021/09/09 11:22:04;;;;;;;6.63;6.05;;;25.50;61.70;;;;;;4176322;28;20071;-59
2021/09/09 11:24:26;;;;;;;7.53;5.90;;;25.60;61.40;;;;;;4189727;28;20148;-59
2021/09/09 11:26:50;;;;;;;6.53;5.93;;;25.60;61.90;;;;;;4192349;28;20032;-59
2021/09/09 11:29:12;;;;;;;7.18;5.88;;;25.60;62.10;;;;;;4191977;28;20072;-58
2021/09/09 11:31:44;;;;;;;6.13;5.57;;;25.60;62.10;;;;;;4192435;28;20504;-57
2021/09/09 11:34:07;;;;;;;6.57;5.97;;;25.60;62.40;;;;;;4181662;28;20051;-56
2021/09/09 11:36:32;;;;;;;6.97;5.82;;;25.60;62.80;;;;;;4192169;28;20144;-57
2021/09/09 11:38:57;;;;;;;6.70;6.10;;;25.70;61.90;;;;;;4190472;28;20518;-59
2021/09/09 11:41:21;;;;;;;6.80;6.25;;;25.70;61.60;;;;;;4192081;28;20067;-60
2021/09/09 11:43:48;;;;;;;6.28;5.75;;;25.70;62.00;;;;;;4176070;28;20044;-58
2021/09/09 11:46:11;;;;;;;6.93;6.13;;;25.80;62.90;;;;;;4174719;28;20055;-56
2021/09/09 11:48:34;;;;;;;6.13;5.55;;;25.80;61.80;;;;;;4171508;28;20049;-58
2021/09/09 11:50:56;;;;;;;8.27;5.75;;;25.80;62.00;;;;;;4160083;28;20053;-60
2021/09/09 11:53:25;;;;;;;7.15;6.10;;;25.90;62.50;;;;;;4174472;28;20051;-59
2021/09/09 11:55:49;;;;;;;6.85;5.63;;;25.90;63.00;;;;;;4174119;28;20132;-57
2021/09/09 11:58:30;;;;;;;6.82;5.93;;;25.90;62.40;;;;;;4164299;28;20073;-59
2021/09/09 12:00:52;;;;;;;6.18;5.68;;;25.90;62.00;;;;;;4174922;28;20059;-59
2021/09/09 12:03:15;;;;;;;6.22;5.72;;;25.90;62.20;;;;;;4176646;28;20688;-59
2021/09/09 12:05:37;;;;;;;6.82;5.40;;;26.00;62.10;;;;;;4166524;28;20474;-58
2021/09/09 12:08:01;;;;;;;5.72;5.13;;;26.00;61.90;;;;;;4170834;28;20057;-59
2021/09/09 12:10:23;;;;;;;5.05;4.63;;;26.00;61.90;;;;;;4174117;28;20060;-59
2021/09/09 12:12:58;;;;;;;5.47;5.07;;;26.00;61.50;;;;;;4174769;28;20505;-59
2021/09/09 12:15:25;;;;;;;6.70;5.15;;;26.00;61.90;;;;;;4173192;28;20680;-60
2021/09/09 12:17:47;;;;;;;5.82;5.35;;;26.10;62.00;;;;;;4174077;28;20414;-59
2021/09/09 12:20:11;;;;;;;5.93;5.43;;;26.10;61.60;;;;;;4175087;28;20403;-60
2021/09/09 12:22:49;;;;;;;6.88;5.30;;;26.10;61.20;;;;;;4174948;28;20055;-60